Time;durP1;ratioP1;P1;durP2;ratioP2;P2;SDS_P1;SDS_P2;PMS_P1;PMS_P2;Temp;Humidity;BMP_temperature;BMP_pressure;BME280_temperature;BME280_humidity;BME280_pressure;Samples;Min_cycle;Max_cycle;Signal;HPM_P1;HPM_P2
2022/04/15 00:00:01;;;;;;;14.65;8.50;;;17.60;45.00;;;;;;5131833;27;20097;-64
2022/04/15 00:02:27;;;;;;;17.48;8.15;;;17.50;45.40;;;;;;5112947;27;20029;-64
2022/04/15 00:04:53;;;;;;;13.13;7.15;;;17.50;45.90;;;;;;5131008;27;20476;-64
2022/04/15 00:07:19;;;;;;;18.23;7.90;;;17.40;46.50;;;;;;5096970;27;20019;-63
2022/04/15 00:09:45;;;;;;;12.63;7.22;;;17.40;46.60;;;;;;5131084;27;20379;-65
2022/04/15 00:12:17;;;;;;;14.30;7.90;;;17.40;46.90;;;;;;5132197;27;20023;-64
2022/04/15 00:14:45;;;;;;;11.40;7.00;;;17.30;47.10;;;;;;5113157;27;20131;-65
2022/04/15 00:17:12;;;;;;;14.85;7.30;;;17.30;47.20;;;;;;5113876;27;20069;-65
2022/04/15 00:19:38;;;;;;;16.05;7.90;;;17.30;47.30;;;;;;5131515;27;20023;-64
2022/04/15 00:22:04;;;;;;;13.98;7.20;;;17.30;47.30;;;;;;5113406;28;20058;-66
2022/04/15 00:24:30;;;;;;;18.10;7.47;;;17.20;47.70;;;;;;5131795;27;20203;-64
2022/04/15 00:26:56;;;;;;;16.42;7.75;;;17.10;47.80;;;;;;5131770;27;20019;-67
2022/04/15 00:29:22;;;;;;;18.58;7.10;;;17.10;47.90;;;;;;5113776;28;20019;-65
2022/04/15 00:32:06;;;;;;;14.07;7.88;;;17.10;48.10;;;;;;5130772;27;20038;-66
2022/04/15 00:34:32;;;;;;;13.20;7.57;;;17.00;48.00;;;;;;5131929;28;20106;-70
2022/04/15 00:36:58;;;;;;;15.82;6.70;;;17.10;48.00;;;;;;5113417;28;20118;-66
2022/04/15 00:39:24;;;;;;;13.70;7.22;;;17.10;48.00;;;;;;5096179;28;20030;-63
2022/04/15 00:41:50;;;;;;;17.95;7.57;;;17.10;47.90;;;;;;5113039;28;20107;-64
2022/04/15 00:44:15;;;;;;;14.95;7.50;;;17.00;47.90;;;;;;5132562;28;20027;-63
2022/04/15 00:46:41;;;;;;;12.70;6.78;;;17.00;48.10;;;;;;5112626;28;20472;-65
2022/04/15 00:49:07;;;;;;;13.50;6.85;;;17.00;48.20;;;;;;5114247;28;20485;-64
2022/04/15 00:51:36;;;;;;;16.52;6.72;;;17.00;48.20;;;;;;5113965;28;20027;-67
2022/04/15 00:54:03;;;;;;;10.75;6.55;;;16.90;48.20;;;;;;5132166;27;20031;-64
2022/04/15 00:56:34;;;;;;;10.73;6.55;;;16.90;48.20;;;;;;5132235;28;20049;-64
2022/04/15 00:59:01;;;;;;;12.13;5.60;;;16.90;48.30;;;;;;5132144;28;20055;-64
2022/04/15 01:01:27;;;;;;;10.63;6.10;;;16.90;48.20;;;;;;5113495;28;20035;-66
2022/04/15 01:03:55;;;;;;;13.27;6.00;;;16.90;48.20;;;;;;5131511;27;20536;-64
2022/04/15 01:06:24;;;;;;;13.10;6.53;;;17.00;48.20;;;;;;5116598;27;20399;-65
2022/04/15 01:08:55;;;;;;;11.40;6.20;;;17.00;48.10;;;;;;5135333;27;20468;-64
2022/04/15 01:11:24;;;;;;;11.10;6.25;;;17.00;48.10;;;;;;5136062;27;20023;-65
2022/04/15 01:13:51;;;;;;;9.98;5.70;;;17.00;48.00;;;;;;5135266;27;20600;-64
2022/04/15 01:16:18;;;;;;;12.98;5.78;;;17.00;47.90;;;;;;5135505;27;20030;-65
2022/04/15 01:18:44;;;;;;;11.95;6.28;;;17.00;47.80;;;;;;5135437;27;20106;-65
2022/04/15 01:21:11;;;;;;;11.90;5.88;;;17.10;47.80;;;;;;5117142;27;20035;-64
2022/04/15 01:23:40;;;;;;;13.88;6.35;;;17.10;47.70;;;;;;5099665;27;20023;-63
2022/04/15 01:26:06;;;;;;;10.13;5.57;;;17.00;47.70;;;;;;5117247;27;20027;-63
2022/04/15 01:28:33;;;;;;;10.10;6.18;;;17.00;47.80;;;;;;5136240;27;20461;-63
2022/04/15 01:30:59;;;;;;;13.98;6.30;;;17.00;47.90;;;;;;5135687;27;20027;-63
2022/04/15 01:33:25;;;;;;;13.63;6.70;;;17.00;47.80;;;;;;5117811;27;20031;-63
2022/04/15 01:35:50;;;;;;;16.05;6.88;;;17.10;47.80;;;;;;5134813;27;20034;-63
2022/04/15 01:38:17;;;;;;;14.48;7.15;;;17.10;47.90;;;;;;5135150;27;20115;-63
2022/04/15 01:40:43;;;;;;;16.17;7.00;;;17.10;47.90;;;;;;5116424;27;20078;-63
2022/04/15 01:43:10;;;;;;;19.67;7.35;;;17.10;47.80;;;;;;5135584;27;20066;-63
2022/04/15 01:45:36;;;;;;;17.90;7.80;;;17.10;47.80;;;;;;5116296;27;20087;-63
2022/04/15 01:48:02;;;;;;;16.42;6.72;;;17.10;47.70;;;;;;5135657;27;20418;-63
2022/04/15 01:50:29;;;;;;;16.33;6.40;;;17.20;47.40;;;;;;5117061;27;20045;-63
2022/04/15 01:52:56;;;;;;;12.95;6.15;;;17.30;46.80;;;;;;5116086;27;20216;-63
2022/04/15 01:55:22;;;;;;;15.40;5.32;;;17.30;46.60;;;;;;5116872;27;20424;-63
2022/04/15 01:57:47;;;;;;;11.73;5.70;;;17.30;46.00;;;;;;5134744;27;20468;-65
2022/04/15 02:00:13;;;;;;;8.48;5.65;;;17.30;45.60;;;;;;5135176;27;20071;-63
2022/04/15 02:02:39;;;;;;;11.88;5.03;;;17.40;45.30;;;;;;5116576;27;20058;-63
2022/04/15 02:05:05;;;;;;;10.55;5.10;;;17.40;45.10;;;;;;5134869;27;20498;-63
2022/04/15 02:07:31;;;;;;;11.85;4.72;;;17.40;44.90;;;;;;5135349;27;20027;-64
2022/04/15 02:09:57;;;;;;;14.52;5.50;;;17.50;44.90;;;;;;5115988;27;20371;-64
2022/04/15 02:12:22;;;;;;;14.75;4.93;;;17.50;44.90;;;;;;5116768;27;20026;-62
2022/04/15 02:14:48;;;;;;;12.80;4.93;;;17.40;45.00;;;;;;5134077;27;20028;-63
2022/04/15 02:17:14;;;;;;;9.82;5.20;;;17.40;45.10;;;;;;5132712;27;20027;-63
2022/04/15 02:19:39;;;;;;;8.57;4.53;;;17.40;45.10;;;;;;5134207;27;20033;-63
2022/04/15 02:22:05;;;;;;;8.68;4.97;;;17.40;45.10;;;;;;5134775;27;20065;-63
2022/04/15 02:27:15;;;;;;;12.60;6.60;;;17.40;45.40;;;;;;5134584;27;20080;-63
2022/04/15 02:29:40;;;;;;;17.35;8.70;;;17.40;45.70;;;;;;5134430;27;20444;-64
2022/04/15 02:32:07;;;;;;;13.77;8.65;;;17.30;46.60;;;;;;5115722;27;20407;-62
2022/04/15 02:34:32;;;;;;;26.92;10.95;;;17.30;47.00;;;;;;5134980;27;20058;-61
2022/04/15 02:36:58;;;;;;;21.77;11.00;;;17.20;47.50;;;;;;5116072;27;20444;-62
2022/04/15 02:39:24;;;;;;;17.17;10.93;;;17.30;47.80;;;;;;5135012;27;20024;-62
2022/04/15 02:41:51;;;;;;;23.52;11.35;;;17.40;48.00;;;;;;5133614;27;20055;-62
2022/04/15 02:44:17;;;;;;;17.55;12.43;;;17.40;48.40;;;;;;5116177;27;20042;-62
2022/04/15 02:46:43;;;;;;;24.40;13.98;;;17.40;48.70;;;;;;5133093;27;20031;-62
2022/04/15 02:49:09;;;;;;;22.83;12.90;;;17.40;49.30;;;;;;5133829;27;20027;-62
2022/04/15 02:51:34;;;;;;;24.92;15.30;;;17.40;49.60;;;;;;5115405;27;20031;-63
2022/04/15 02:54:00;;;;;;;21.80;15.80;;;17.40;50.20;;;;;;5115210;27;20049;-62
2022/04/15 02:56:26;;;;;;;19.13;14.88;;;17.30;50.20;;;;;;5134181;27;20049;-63
2022/04/15 02:58:51;;;;;;;22.77;16.30;;;17.30;50.30;;;;;;5133471;27;20055;-62
2022/04/15 03:01:17;;;;;;;24.02;15.35;;;17.30;50.80;;;;;;5115645;27;20114;-62
2022/04/15 03:03:43;;;;;;;23.00;16.00;;;17.20;51.20;;;;;;5132899;27;20513;-64
2022/04/15 03:06:09;;;;;;;22.50;15.95;;;17.20;51.20;;;;;;5133126;27;20030;-62
2022/04/15 03:08:34;;;;;;;24.23;16.95;;;17.20;51.90;;;;;;5114344;27;20468;-63
2022/04/15 03:11:00;;;;;;;21.05;15.52;;;17.20;51.80;;;;;;5115212;27;20055;-62
2022/04/15 03:13:27;;;;;;;23.55;16.38;;;17.10;52.30;;;;;;5132351;27;20098;-66
2022/04/15 03:15:52;;;;;;;21.83;15.55;;;17.20;52.30;;;;;;5132700;27;20031;-62
2022/04/15 03:18:18;;;;;;;28.38;15.35;;;17.20;52.60;;;;;;5133663;27;20391;-62
2022/04/15 03:20:45;;;;;;;22.58;16.67;;;17.10;53.10;;;;;;5133679;27;20034;-62
2022/04/15 03:23:11;;;;;;;20.40;15.23;;;17.10;53.60;;;;;;5133616;27;20023;-62
2022/04/15 03:25:36;;;;;;;20.30;16.00;;;17.00;53.70;;;;;;5132530;27;20046;-62
2022/04/15 03:28:02;;;;;;;21.40;14.57;;;17.00;53.90;;;;;;5133256;27;20055;-62
2022/04/15 03:30:28;;;;;;;21.25;14.55;;;17.00;54.20;;;;;;5132739;27;20026;-62
2022/04/15 03:32:53;;;;;;;18.40;15.57;;;17.00;54.40;;;;;;5097765;27;20022;-64
2022/04/15 03:35:21;;;;;;;17.17;14.48;;;17.00;54.50;;;;;;5132675;27;20468;-66
2022/04/15 03:37:50;;;;;;;22.17;14.32;;;16.90;55.00;;;;;;5115004;27;20030;-63
2022/04/15 03:40:17;;;;;;;19.83;14.43;;;16.90;55.20;;;;;;5132384;27;20019;-63
2022/04/15 03:42:56;;;;;;;21.55;13.18;;;16.90;55.80;;;;;;5113970;27;20387;-61
2022/04/15 03:45:22;;;;;;;18.30;12.95;;;16.90;55.80;;;;;;5132509;27;20030;-63
2022/04/15 03:47:52;;;;;;;19.67;13.27;;;16.90;55.50;;;;;;5132687;27;20027;-64
2022/04/15 03:50:18;;;;;;;19.35;11.63;;;16.80;55.80;;;;;;5132845;27;20038;-63
2022/04/15 03:52:46;;;;;;;22.40;12.15;;;16.80;55.80;;;;;;5131813;27;20024;-65
2022/04/15 03:55:18;;;;;;;20.27;12.00;;;16.90;55.80;;;;;;5114301;27;20027;-62
2022/04/15 03:57:43;;;;;;;18.95;11.90;;;16.90;55.70;;;;;;5114483;27;20099;-63
2022/04/15 04:00:21;;;;;;;18.80;11.60;;;16.90;55.70;;;;;;5132621;27;20480;-62
2022/04/15 04:02:48;;;;;;;14.13;11.32;;;16.80;55.80;;;;;;5114316;27;20114;-62
2022/04/15 04:05:14;;;;;;;17.00;11.18;;;16.80;56.20;;;;;;5132237;27;20027;-65
2022/04/15 04:07:44;;;;;;;15.82;10.95;;;16.80;56.10;;;;;;5132079;27;20248;-63
2022/04/15 04:10:13;;;;;;;17.92;11.02;;;16.80;56.20;;;;;;5113866;27;20031;-62
2022/04/15 04:12:40;;;;;;;17.77;10.88;;;16.80;56.40;;;;;;5132008;27;20044;-62
2022/04/15 04:15:07;;;;;;;13.88;11.07;;;16.70;56.40;;;;;;5097196;27;20533;-65
2022/04/15 04:17:33;;;;;;;15.25;9.98;;;16.80;56.60;;;;;;5131920;27;20027;-62
2022/04/15 04:19:59;;;;;;;16.20;9.45;;;16.80;56.70;;;;;;5132511;27;20483;-62
2022/04/15 04:22:33;;;;;;;18.85;9.98;;;16.80;56.90;;;;;;5131853;27;20024;-62
2022/04/15 04:24:59;;;;;;;15.02;10.00;;;16.70;57.00;;;;;;5114005;28;20035;-62
2022/04/15 04:27:25;;;;;;;15.65;10.73;;;16.80;56.80;;;;;;5131600;28;20030;-63
2022/04/15 04:29:51;;;;;;;13.57;9.65;;;16.80;56.90;;;;;;5132517;28;20023;-62
2022/04/15 04:32:18;;;;;;;13.13;9.23;;;16.80;56.90;;;;;;5131323;27;20027;-62
2022/04/15 04:34:44;;;;;;;17.77;9.40;;;16.90;57.00;;;;;;5113435;28;20501;-62
2022/04/15 04:37:10;;;;;;;13.27;8.60;;;16.90;57.00;;;;;;5114097;28;20038;-62
2022/04/15 04:39:36;;;;;;;10.13;6.93;;;16.90;57.20;;;;;;5131902;27;20023;-63
2022/04/15 04:42:03;;;;;;;14.73;8.10;;;16.90;57.40;;;;;;5136698;27;20044;-63
2022/04/15 04:44:31;;;;;;;13.02;7.68;;;16.90;57.20;;;;;;5136365;27;20123;-63
2022/04/15 04:46:58;;;;;;;13.30;8.05;;;17.00;57.30;;;;;;5136599;27;20026;-63
2022/04/15 04:49:24;;;;;;;12.25;7.57;;;17.00;57.10;;;;;;5134644;27;20513;-63
2022/04/15 04:51:50;;;;;;;11.40;6.90;;;17.00;57.00;;;;;;5136366;27;20030;-63
2022/04/15 04:54:16;;;;;;;12.90;7.18;;;17.10;57.00;;;;;;5136246;27;20031;-64
2022/04/15 04:56:42;;;;;;;12.73;7.43;;;17.10;56.90;;;;;;5135571;27;20048;-64
2022/04/15 04:59:07;;;;;;;16.10;7.88;;;17.20;56.80;;;;;;5135326;27;20027;-64
2022/04/15 05:01:33;;;;;;;10.75;7.80;;;17.30;56.60;;;;;;5136030;27;20023;-63
2022/04/15 05:03:59;;;;;;;11.13;7.30;;;17.30;56.50;;;;;;5136052;27;20027;-63
2022/04/15 05:06:24;;;;;;;9.77;7.22;;;17.40;56.40;;;;;;5117076;27;20040;-63
2022/04/15 05:08:50;;;;;;;9.68;6.95;;;17.40;56.40;;;;;;5134894;27;20023;-63
2022/04/15 05:11:16;;;;;;;10.65;7.47;;;17.50;56.30;;;;;;5136197;27;20023;-64
2022/04/15 05:13:42;;;;;;;15.50;8.13;;;17.50;56.20;;;;;;5135811;27;20053;-64
2022/04/15 05:16:08;;;;;;;20.55;7.53;;;17.50;56.10;;;;;;5134681;27;20444;-62
2022/04/15 05:18:34;;;;;;;15.15;7.50;;;17.50;55.90;;;;;;5132851;27;20483;-63
2022/04/15 05:21:01;;;;;;;13.05;7.40;;;17.60;55.80;;;;;;5115839;27;20488;-64
2022/04/15 05:23:27;;;;;;;16.80;7.28;;;17.60;55.80;;;;;;5134177;27;20059;-66
2022/04/15 05:26:12;;;;;;;18.25;7.18;;;17.60;55.70;;;;;;5134196;27;20047;-64
2022/04/15 05:28:38;;;;;;;16.85;7.07;;;17.60;55.80;;;;;;5134097;27;20090;-64
2022/04/15 05:31:04;;;;;;;12.77;6.80;;;17.70;55.80;;;;;;5115864;27;20046;-63
2022/04/15 05:33:31;;;;;;;14.20;6.30;;;17.70;55.70;;;;;;5134441;27;20049;-63
2022/04/15 05:35:57;;;;;;;12.27;6.28;;;17.80;55.60;;;;;;5115998;27;20499;-63
2022/04/15 05:38:24;;;;;;;13.80;6.55;;;17.90;55.40;;;;;;5116970;27;20091;-64
2022/04/15 05:40:51;;;;;;;16.02;6.32;;;18.00;55.30;;;;;;5115740;27;20046;-63
2022/04/15 05:43:16;;;;;;;23.35;7.90;;;18.10;55.10;;;;;;5116246;27;20030;-66
2022/04/15 05:45:43;;;;;;;17.50;7.03;;;18.20;54.90;;;;;;5114785;27;20035;-64
2022/04/15 05:48:27;;;;;;;15.88;5.97;;;18.30;54.50;;;;;;5133473;27;20030;-66
2022/04/15 05:50:53;;;;;;;8.90;6.10;;;18.50;54.20;;;;;;5133017;27;20484;-63
2022/04/15 05:53:18;;;;;;;13.38;6.05;;;18.60;54.00;;;;;;5115135;27;20039;-64
2022/04/15 05:55:44;;;;;;;16.98;6.65;;;18.70;53.80;;;;;;5115258;27;20716;-66
2022/04/15 05:58:10;;;;;;;20.13;6.75;;;18.70;54.00;;;;;;5114897;27;20034;-64
2022/04/15 06:00:37;;;;;;;16.77;6.38;;;18.60;54.30;;;;;;5114555;27;20506;-63
2022/04/15 06:03:03;;;;;;;12.50;5.30;;;18.70;54.30;;;;;;5133964;27;20023;-64
2022/04/15 06:05:30;;;;;;;9.43;5.35;;;18.80;54.30;;;;;;5133578;27;20043;-63
2022/04/15 06:07:57;;;;;;;9.43;4.75;;;18.90;54.40;;;;;;5133310;27;20517;-63
2022/04/15 06:10:23;;;;;;;11.57;4.57;;;18.90;54.50;;;;;;5115459;27;20023;-65
2022/04/15 06:12:57;;;;;;;8.98;4.47;;;18.90;54.60;;;;;;5132303;27;20111;-65
2022/04/15 06:15:30;;;;;;;10.65;5.03;;;18.90;54.80;;;;;;5134020;27;20019;-65
2022/04/15 06:17:57;;;;;;;11.45;4.53;;;18.90;55.00;;;;;;5133790;27;20031;-64
2022/04/15 06:20:23;;;;;;;11.07;4.45;;;18.90;55.60;;;;;;5115645;27;20031;-63
2022/04/15 06:22:49;;;;;;;9.30;4.43;;;18.80;55.20;;;;;;5113609;27;20261;-65
2022/04/15 06:25:17;;;;;;;8.20;4.38;;;18.80;55.70;;;;;;5115495;27;20122;-62
2022/04/15 06:27:44;;;;;;;11.55;4.70;;;18.70;56.40;;;;;;5115098;27;20114;-63
2022/04/15 06:30:11;;;;;;;10.07;4.43;;;18.60;57.00;;;;;;5097501;27;20106;-64
2022/04/15 06:32:37;;;;;;;10.77;4.63;;;18.50;57.50;;;;;;5115305;27;20055;-62
2022/04/15 06:35:05;;;;;;;8.23;4.50;;;18.50;57.90;;;;;;5134042;27;20081;-63
2022/04/15 06:37:30;;;;;;;8.15;4.60;;;18.50;57.80;;;;;;5133348;27;20055;-62
2022/04/15 06:39:56;;;;;;;10.13;4.95;;;18.40;58.50;;;;;;5115266;27;20066;-62
2022/04/15 06:42:30;;;;;;;7.50;4.35;;;18.30;58.90;;;;;;5133148;27;20096;-62
2022/04/15 06:44:56;;;;;;;10.02;4.68;;;18.20;59.50;;;;;;5115235;27;20042;-63
2022/04/15 06:47:22;;;;;;;6.43;4.40;;;18.10;59.80;;;;;;5132354;27;20371;-64
2022/04/15 06:49:48;;;;;;;10.10;5.53;;;18.10;60.20;;;;;;5132692;27;20042;-62
2022/04/15 06:52:15;;;;;;;10.27;7.43;;;18.00;60.90;;;;;;5133306;27;20057;-63
2022/04/15 06:54:41;;;;;;;13.40;8.43;;;18.00;61.20;;;;;;5133091;27;20068;-63
2022/04/15 06:57:07;;;;;;;12.45;5.55;;;18.00;61.60;;;;;;5115545;27;20363;-62
2022/04/15 06:59:33;;;;;;;13.23;5.40;;;18.00;61.50;;;;;;5114904;27;20023;-60
2022/04/15 07:01:59;;;;;;;9.60;6.20;;;17.80;61.80;;;;;;5133553;27;20451;-62
2022/04/15 07:04:27;;;;;;;11.05;5.60;;;17.70;62.20;;;;;;5132948;27;20110;-63
2022/04/15 07:06:54;;;;;;;12.07;5.55;;;17.70;62.60;;;;;;5133709;27;20019;-63
2022/04/15 07:09:19;;;;;;;11.73;5.47;;;17.70;62.90;;;;;;5133996;27;20027;-63
2022/04/15 07:11:45;;;;;;;10.40;5.50;;;17.70;63.00;;;;;;5133260;27;20015;-63
2022/04/15 07:14:11;;;;;;;8.75;5.15;;;17.70;63.00;;;;;;5133884;27;20095;-63
2022/04/15 07:16:36;;;;;;;11.50;5.65;;;17.70;63.20;;;;;;5115026;27;20359;-63
2022/04/15 07:19:04;;;;;;;10.30;6.13;;;17.80;63.30;;;;;;5115261;27;20425;-61
2022/04/15 07:21:40;;;;;;;9.75;6.25;;;17.80;63.40;;;;;;5132906;27;20034;-62
2022/04/15 07:24:06;;;;;;;11.70;6.60;;;17.80;63.60;;;;;;5115303;27;20444;-62
2022/04/15 07:26:33;;;;;;;10.05;6.50;;;17.70;63.80;;;;;;5133403;27;20023;-63
2022/04/15 07:28:59;;;;;;;11.10;6.93;;;17.70;64.00;;;;;;5133534;27;20023;-62
2022/04/15 07:31:25;;;;;;;13.55;7.10;;;17.70;64.00;;;;;;5132882;27;20015;-64
2022/04/15 07:33:51;;;;;;;11.80;7.30;;;17.60;64.60;;;;;;5130626;27;20188;-60
2022/04/15 07:39:06;;;;;;;12.82;6.70;;;17.80;64.20;;;;;;5132227;27;20030;-62
2022/04/15 07:41:36;;;;;;;18.67;7.30;;;17.70;64.30;;;;;;5112807;27;20043;-62
2022/04/15 07:44:06;;;;;;;9.65;7.22;;;17.80;64.30;;;;;;5131662;27;20424;-62
2022/04/15 07:46:32;;;;;;;14.90;8.40;;;17.90;64.00;;;;;;5113285;27;20055;-64
2022/04/15 07:48:58;;;;;;;13.68;7.57;;;17.90;64.20;;;;;;5132764;27;20047;-61
2022/04/15 07:51:23;;;;;;;11.10;7.28;;;17.90;64.00;;;;;;5112630;27;20092;-60
2022/04/15 07:53:49;;;;;;;10.45;7.85;;;17.80;64.20;;;;;;5131724;27;20046;-62
2022/04/15 07:56:15;;;;;;;14.02;9.10;;;17.70;64.80;;;;;;5132257;27;20160;-64
2022/04/15 07:58:41;;;;;;;11.95;7.95;;;17.50;65.20;;;;;;5131585;27;20027;-64
2022/04/15 08:01:07;;;;;;;15.95;8.50;;;17.50;65.40;;;;;;5132007;27;20026;-64
2022/04/15 08:03:33;;;;;;;13.95;10.70;;;17.50;65.90;;;;;;5113653;27;20045;-69
2022/04/15 08:06:00;;;;;;;12.52;8.25;;;17.50;65.90;;;;;;5132250;27;20528;-64
2022/04/15 08:08:26;;;;;;;12.90;8.38;;;17.50;66.20;;;;;;5132780;27;20472;-66
2022/04/15 08:10:54;;;;;;;10.68;8.10;;;17.40;66.70;;;;;;5113578;27;20193;-65
2022/04/15 08:13:21;;;;;;;10.95;8.63;;;17.40;66.70;;;;;;5132050;27;20031;-64
2022/04/15 08:15:50;;;;;;;12.98;8.63;;;17.40;66.70;;;;;;5112335;28;20181;-66
2022/04/15 08:18:16;;;;;;;8.93;7.82;;;17.30;67.00;;;;;;5131240;27;20027;-64
2022/04/15 08:20:42;;;;;;;14.98;8.38;;;17.30;67.00;;;;;;5112677;27;20046;-63
2022/04/15 08:23:17;;;;;;;12.43;8.30;;;17.30;67.10;;;;;;5131473;27;20242;-65
2022/04/15 08:25:45;;;;;;;10.00;7.18;;;17.20;67.20;;;;;;5130977;27;20031;-65
2022/04/15 08:28:11;;;;;;;15.07;8.38;;;17.20;67.40;;;;;;5114259;28;20115;-64
2022/04/15 08:30:38;;;;;;;11.98;8.32;;;17.20;67.40;;;;;;5113128;28;20019;-65
2022/04/15 08:33:05;;;;;;;14.73;11.68;;;17.30;67.10;;;;;;5132201;27;20035;-64
2022/04/15 08:35:33;;;;;;;17.27;8.45;;;17.30;66.90;;;;;;5132592;27;20031;-65
2022/04/15 08:37:59;;;;;;;12.27;8.70;;;17.50;66.90;;;;;;5114340;28;20047;-63
2022/04/15 08:40:34;;;;;;;15.10;8.60;;;17.40;66.60;;;;;;5113694;27;20039;-65
2022/04/15 08:43:03;;;;;;;11.02;7.70;;;17.50;66.40;;;;;;5132883;28;20035;-64
2022/04/15 08:45:30;;;;;;;12.55;7.72;;;17.60;66.10;;;;;;5114039;28;20379;-64
2022/04/15 08:48:00;;;;;;;12.82;7.75;;;17.70;65.50;;;;;;5131488;28;20019;-65
2022/04/15 08:50:28;;;;;;;14.40;8.13;;;17.80;65.40;;;;;;5131902;28;20030;-66
2022/04/15 08:52:55;;;;;;;16.17;7.50;;;17.70;65.10;;;;;;5113049;28;20117;-65
2022/04/15 08:55:21;;;;;;;11.43;7.38;;;17.70;65.00;;;;;;5130490;27;20564;-64
2022/04/15 08:57:53;;;;;;;12.98;8.18;;;17.80;65.10;;;;;;5131953;28;20176;-64
2022/04/15 09:00:27;;;;;;;10.38;8.02;;;17.80;65.00;;;;;;5112524;28;20011;-64
2022/04/15 09:02:55;;;;;;;12.82;8.80;;;17.70;65.20;;;;;;5112519;28;20108;-64
2022/04/15 09:05:26;;;;;;;16.48;8.38;;;17.60;65.80;;;;;;5131822;27;20035;-64
2022/04/15 09:08:10;;;;;;;12.82;9.40;;;17.60;65.80;;;;;;5130966;28;20027;-67
2022/04/15 09:10:39;;;;;;;18.60;10.85;;;17.50;66.60;;;;;;5095192;28;20039;-68
2022/04/15 09:13:05;;;;;;;20.58;11.23;;;17.50;66.70;;;;;;5112031;28;20057;-65
2022/04/15 09:15:32;;;;;;;17.52;10.82;;;17.60;66.70;;;;;;5131110;27;20097;-65
2022/04/15 09:18:00;;;;;;;17.00;10.90;;;17.70;66.50;;;;;;5129492;28;20343;-64
2022/04/15 09:20:34;;;;;;;15.32;10.27;;;17.90;65.60;;;;;;5111820;28;20019;-65
2022/04/15 09:23:09;;;;;;;17.60;10.10;;;18.10;65.00;;;;;;5111140;28;20028;-65
2022/04/15 09:25:37;;;;;;;11.43;9.20;;;18.30;64.30;;;;;;5130820;27;20076;-69
2022/04/15 09:28:03;;;;;;;15.23;9.25;;;18.70;63.40;;;;;;5115709;27;20110;-62
2022/04/15 09:30:40;;;;;;;14.70;8.90;;;19.20;62.00;;;;;;5132943;27;20106;-66
2022/04/15 09:33:18;;;;;;;14.30;9.00;;;19.60;60.60;;;;;;5113777;27;20059;-65
2022/04/15 09:35:54;;;;;;;13.73;8.27;;;19.80;59.10;;;;;;5132815;27;20559;-65
2022/04/15 09:38:38;;;;;;;12.27;6.90;;;20.10;57.50;;;;;;5116043;27;20114;-67
2022/04/15 09:41:19;;;;;;;12.27;7.20;;;20.30;55.40;;;;;;5114619;27;20575;-68
2022/04/15 09:44:00;;;;;;;14.98;7.07;;;20.50;54.60;;;;;;5114236;27;20051;-67
2022/04/15 09:46:31;;;;;;;11.73;5.72;;;20.90;53.80;;;;;;5132765;27;20031;-66
2022/04/15 09:49:04;;;;;;;11.52;6.28;;;21.10;52.10;;;;;;5133135;27;20167;-65
2022/04/15 09:51:38;;;;;;;10.65;6.35;;;21.30;51.30;;;;;;5133334;27;20023;-66
2022/04/15 09:54:06;;;;;;;7.78;4.60;;;21.50;50.90;;;;;;5115694;27;20421;-66
2022/04/15 09:56:34;;;;;;;8.23;4.90;;;21.70;49.70;;;;;;5133564;27;20032;-65
2022/04/15 09:59:05;;;;;;;7.13;4.68;;;21.90;49.90;;;;;;5115148;27;20444;-66
2022/04/15 10:01:33;;;;;;;6.95;4.25;;;22.20;48.10;;;;;;5134259;27;20121;-64
2022/04/15 10:04:00;;;;;;;9.95;5.05;;;22.10;47.10;;;;;;5133449;27;20062;-64
2022/04/15 10:06:26;;;;;;;12.07;5.50;;;22.00;47.30;;;;;;5116246;27;20531;-64
2022/04/15 10:08:53;;;;;;;7.20;4.53;;;21.90;48.10;;;;;;5115502;27;20027;-64
2022/04/15 10:11:19;;;;;;;7.43;5.13;;;21.80;47.40;;;;;;5115676;27;20130;-64
2022/04/15 10:13:45;;;;;;;6.63;3.60;;;21.60;47.60;;;;;;5133348;27;20023;-65
2022/04/15 10:16:17;;;;;;;7.07;3.53;;;21.50;47.50;;;;;;5134542;27;20111;-63
2022/04/15 10:18:46;;;;;;;9.18;4.25;;;21.50;47.10;;;;;;5133488;27;20026;-68
2022/04/15 10:21:12;;;;;;;6.18;3.80;;;21.40;46.90;;;;;;5115341;27;20019;-67
2022/04/15 10:23:48;;;;;;;8.07;4.10;;;21.30;47.40;;;;;;5133565;27;20464;-67
2022/04/15 10:26:18;;;;;;;10.18;4.65;;;21.20;47.50;;;;;;5115299;27;20485;-65
2022/04/15 10:28:47;;;;;;;9.20;4.55;;;21.10;47.80;;;;;;5114525;27;20107;-66
2022/04/15 10:31:16;;;;;;;11.05;4.50;;;21.20;48.50;;;;;;5133644;27;20445;-66
2022/04/15 10:33:49;;;;;;;10.20;3.90;;;21.20;48.00;;;;;;5132955;27;20019;-65
2022/04/15 10:36:22;;;;;;;8.52;3.80;;;21.10;47.70;;;;;;5115418;27;20035;-65
2022/04/15 10:39:03;;;;;;;4.77;3.53;;;21.20;47.10;;;;;;5131727;27;20443;-65
2022/04/15 10:41:49;;;;;;;6.00;3.40;;;21.20;46.70;;;;;;5115022;27;20313;-62
2022/04/15 10:44:29;;;;;;;7.68;3.90;;;21.20;46.50;;;;;;5114273;27;20128;-63
2022/04/15 10:47:24;;;;;;;11.63;4.85;;;21.20;46.20;;;;;;5132393;27;20034;-65
2022/04/15 10:50:06;;;;;;;15.90;5.68;;;21.50;45.60;;;;;;5122972;27;20035;-64
2022/04/15 10:52:34;;;;;;;13.38;3.80;;;21.50;44.40;;;;;;5132777;27;20076;-63
2022/04/15 10:55:02;;;;;;;12.70;4.20;;;21.70;44.30;;;;;;5113190;27;20042;-63
2022/04/15 10:57:41;;;;;;;11.05;4.10;;;21.90;44.10;;;;;;5110710;27;20028;-65
2022/04/15 11:03:24;;;;;;;8.05;3.00;;;22.70;42.30;;;;;;5131161;27;20041;-65
2022/04/15 11:05:52;;;;;;;7.75;3.28;;;22.60;42.10;;;;;;5129944;27;20027;-67
2022/04/15 11:08:20;;;;;;;6.78;3.85;;;22.40;42.50;;;;;;5130475;27;20428;-65
2022/04/15 11:10:55;;;;;;;9.35;4.90;;;22.20;43.40;;;;;;5095290;27;20023;-62
2022/04/15 11:13:32;;;;;;;10.95;4.38;;;22.10;44.50;;;;;;5132025;27;20019;-69
2022/04/15 11:16:10;;;;;;;8.23;5.35;;;22.00;45.30;;;;;;5113251;27;20033;-66
2022/04/15 11:19:14;;;;;;;12.13;4.65;;;22.10;45.10;;;;;;5132406;27;20440;-66
2022/04/15 11:21:40;;;;;;;12.87;6.90;;;22.20;45.20;;;;;;5110399;27;20043;-67
2022/04/15 11:24:10;;;;;;;11.38;5.72;;;22.30;45.40;;;;;;5132046;27;20339;-65
2022/04/15 11:26:39;;;;;;;10.30;5.35;;;22.40;44.30;;;;;;5132536;27;20030;-66
2022/04/15 11:29:06;;;;;;;8.38;5.13;;;22.50;44.40;;;;;;5130841;27;20020;-63
2022/04/15 11:31:34;;;;;;;9.30;6.45;;;22.50;44.50;;;;;;5112882;27;20027;-64
2022/04/15 11:34:02;;;;;;;10.13;5.57;;;22.50;44.90;;;;;;5112893;27;20027;-67
2022/04/15 11:36:32;;;;;;;10.25;6.25;;;22.50;45.10;;;;;;5113632;27;20027;-60
2022/04/15 11:39:01;;;;;;;9.45;5.97;;;22.40;45.10;;;;;;5131883;27;20387;-62
2022/04/15 11:41:28;;;;;;;11.55;6.55;;;22.40;45.40;;;;;;5113080;27;20093;-62
2022/04/15 11:43:55;;;;;;;12.05;7.22;;;22.50;45.50;;;;;;5131992;27;20032;-62
2022/04/15 11:46:20;;;;;;;10.00;6.28;;;22.70;45.50;;;;;;5132215;27;20125;-66
2022/04/15 11:48:47;;;;;;;11.50;6.50;;;22.70;44.80;;;;;;5112494;27;20055;-66
2022/04/15 11:51:13;;;;;;;14.15;6.45;;;22.80;44.50;;;;;;5131259;27;20046;-65
2022/04/15 11:53:39;;;;;;;12.80;8.50;;;22.80;43.60;;;;;;5131424;27;20325;-66
2022/04/15 11:56:06;;;;;;;11.60;7.07;;;22.80;43.90;;;;;;5124691;27;20343;-66
2022/04/15 12:01:37;;;;;;;11.48;6.22;;;23.30;43.60;;;;;;5130703;27;20437;-63
2022/04/15 12:04:04;;;;;;;8.30;6.03;;;23.50;42.70;;;;;;5112605;27;20023;-66
2022/04/15 12:06:31;;;;;;;11.63;5.38;;;23.30;42.40;;;;;;5112780;27;20027;-67
2022/04/15 12:08:57;;;;;;;9.68;6.30;;;23.20;41.90;;;;;;5112602;27;20050;-67
2022/04/15 12:11:25;;;;;;;13.20;6.05;;;23.10;42.40;;;;;;5132070;27;20107;-68
2022/04/15 12:13:59;;;;;;;8.90;5.57;;;23.20;42.20;;;;;;5113179;28;20019;-70
2022/04/15 12:16:29;;;;;;;7.88;5.30;;;23.20;41.20;;;;;;5131888;27;20023;-66
2022/04/15 12:18:56;;;;;;;7.95;5.50;;;23.30;41.30;;;;;;5113176;27;20043;-68
2022/04/15 12:21:25;;;;;;;9.43;5.95;;;23.20;41.10;;;;;;5132284;27;20060;-66
2022/04/15 12:24:11;;;;;;;19.95;13.07;;;23.00;41.70;;;;;;5113078;27;20041;-68
2022/04/15 12:27:05;;;;;;;22.70;9.32;;;22.90;42.20;;;;;;5113490;28;20035;-66
2022/04/15 12:29:51;;;;;;;;;;;23.00;42.30;;;;;;5129102;28;20103;-63
2022/04/15 12:32:20;;;;;;;9.52;7.18;;;22.90;42.60;;;;;;5113573;28;19922;-63
2022/04/15 12:35:12;;;;;;;8.35;5.47;;;23.00;42.90;;;;;;5131177;27;20020;-64
2022/04/15 12:37:41;;;;;;;10.73;6.05;;;23.30;42.80;;;;;;5102637;28;20031;-64
2022/04/15 12:40:14;;;;;;;7.97;5.70;;;23.60;42.60;;;;;;5131161;27;20102;-64
2022/04/15 12:42:41;;;;;;;9.18;5.63;;;23.70;42.20;;;;;;5131887;28;20020;-67
2022/04/15 12:45:19;;;;;;;10.90;6.15;;;23.70;42.30;;;;;;5112449;28;20023;-67
2022/04/15 12:48:04;;;;;;;9.23;6.05;;;23.70;42.00;;;;;;5096553;28;20031;-67
2022/04/15 12:50:33;;;;;;;9.52;6.63;;;23.70;42.40;;;;;;5114038;28;20030;-67
2022/04/15 12:53:01;;;;;;;8.73;6.88;;;23.60;42.90;;;;;;5111507;28;20035;-67
2022/04/15 12:55:31;;;;;;;9.70;5.93;;;23.50;42.90;;;;;;5111946;28;20035;-66